sensor_id;sensor_type;location;lat;lon;timestamp;P1;durP1;ratioP1;P2;durP2;ratioP2
21927;SDS011;11128;51.096;17.190;2022-07-06T00:02:15;7.22;;;5.18;;
21927;SDS011;11128;51.096;17.190;2022-07-06T00:07:17;9.60;;;5.45;;
21927;SDS011;11128;51.096;17.190;2022-07-06T00:12:18;6.00;;;4.68;;
21927;SDS011;11128;51.096;17.190;2022-07-06T00:17:21;6.65;;;4.78;;
21927;SDS011;11128;51.096;17.190;2022-07-06T00:22:23;4.55;;;4.15;;
21927;SDS011;11128;51.096;17.190;2022-07-06T00:27:24;6.00;;;4.88;;
21927;SDS011;11128;51.096;17.190;2022-07-06T00:32:26;6.28;;;5.45;;
21927;SDS011;11128;51.096;17.190;2022-07-06T00:37:28;6.55;;;4.57;;
21927;SDS011;11128;51.096;17.190;2022-07-06T00:42:38;6.78;;;4.88;;
21927;SDS011;11128;51.096;17.190;2022-07-06T00:47:43;7.85;;;5.05;;
21927;SDS011;11128;51.096;17.190;2022-07-06T00:52:46;14.75;;;8.02;;
21927;SDS011;11128;51.096;17.190;2022-07-06T00:57:55;14.30;;;8.85;;
21927;SDS011;11128;51.096;17.190;2022-07-06T01:02:58;10.43;;;7.45;;
21927;SDS011;11128;51.096;17.190;2022-07-06T01:07:59;10.55;;;8.43;;
21927;SDS011;11128;51.096;17.190;2022-07-06T01:13:03;9.95;;;7.38;;
21927;SDS011;11128;51.096;17.190;2022-07-06T01:18:05;10.40;;;7.32;;
21927;SDS011;11128;51.096;17.190;2022-07-06T01:23:10;13.38;;;9.85;;
21927;SDS011;11128;51.096;17.190;2022-07-06T01:28:11;14.63;;;10.50;;
21927;SDS011;11128;51.096;17.190;2022-07-06T01:33:14;15.98;;;10.88;;
21927;SDS011;11128;51.096;17.190;2022-07-06T01:38:16;10.13;;;7.93;;
21927;SDS011;11128;51.096;17.190;2022-07-06T01:43:18;11.25;;;8.15;;
21927;SDS011;11128;51.096;17.190;2022-07-06T01:48:19;11.52;;;8.38;;
21927;SDS011;11128;51.096;17.190;2022-07-06T01:53:20;10.50;;;7.90;;
21927;SDS011;11128;51.096;17.190;2022-07-06T01:58:22;9.93;;;7.90;;
21927;SDS011;11128;51.096;17.190;2022-07-06T02:03:23;11.45;;;7.80;;
21927;SDS011;11128;51.096;17.190;2022-07-06T02:08:25;11.43;;;6.97;;
21927;SDS011;11128;51.096;17.190;2022-07-06T02:13:26;9.85;;;7.55;;
21927;SDS011;11128;51.096;17.190;2022-07-06T02:18:28;10.88;;;7.10;;
21927;SDS011;11128;51.096;17.190;2022-07-06T02:23:31;9.98;;;6.72;;
21927;SDS011;11128;51.096;17.190;2022-07-06T02:28:32;8.20;;;6.20;;
21927;SDS011;11128;51.096;17.190;2022-07-06T02:33:34;11.00;;;6.32;;
21927;SDS011;11128;51.096;17.190;2022-07-06T02:38:35;13.60;;;7.45;;
21927;SDS011;11128;51.096;17.190;2022-07-06T02:43:37;11.43;;;7.00;;
21927;SDS011;11128;51.096;17.190;2022-07-06T02:48:39;11.75;;;7.32;;
21927;SDS011;11128;51.096;17.190;2022-07-06T02:53:41;18.23;;;8.07;;
21927;SDS011;11128;51.096;17.190;2022-07-06T02:58:42;11.38;;;7.70;;
21927;SDS011;11128;51.096;17.190;2022-07-06T03:03:44;13.45;;;6.97;;
21927;SDS011;11128;51.096;17.190;2022-07-06T03:08:46;17.13;;;8.30;;
21927;SDS011;11128;51.096;17.190;2022-07-06T03:13:47;13.70;;;8.55;;
21927;SDS011;11128;51.096;17.190;2022-07-06T03:18:49;12.40;;;8.80;;
21927;SDS011;11128;51.096;17.190;2022-07-06T03:23:51;12.85;;;8.57;;
21927;SDS011;11128;51.096;17.190;2022-07-06T03:28:52;11.38;;;7.80;;
21927;SDS011;11128;51.096;17.190;2022-07-06T03:33:54;11.15;;;7.63;;
21927;SDS011;11128;51.096;17.190;2022-07-06T03:38:55;12.68;;;9.30;;
21927;SDS011;11128;51.096;17.190;2022-07-06T03:43:59;15.98;;;8.60;;
21927;SDS011;11128;51.096;17.190;2022-07-06T03:49:00;13.88;;;10.27;;
21927;SDS011;11128;51.096;17.190;2022-07-06T03:54:02;18.45;;;13.48;;
21927;SDS011;11128;51.096;17.190;2022-07-06T03:59:03;19.17;;;14.95;;
21927;SDS011;11128;51.096;17.190;2022-07-06T04:04:05;21.90;;;15.10;;
21927;SDS011;11128;51.096;17.190;2022-07-06T04:09:07;35.45;;;20.88;;
21927;SDS011;11128;51.096;17.190;2022-07-06T04:14:10;26.40;;;18.08;;
21927;SDS011;11128;51.096;17.190;2022-07-06T04:19:11;15.10;;;10.70;;
21927;SDS011;11128;51.096;17.190;2022-07-06T04:24:14;11.70;;;7.63;;
21927;SDS011;11128;51.096;17.190;2022-07-06T04:29:16;11.23;;;5.90;;
21927;SDS011;11128;51.096;17.190;2022-07-06T04:34:17;7.72;;;6.00;;
21927;SDS011;11128;51.096;17.190;2022-07-06T04:39:19;8.15;;;5.72;;
21927;SDS011;11128;51.096;17.190;2022-07-06T04:44:20;12.70;;;6.72;;
21927;SDS011;11128;51.096;17.190;2022-07-06T04:49:23;11.05;;;6.38;;
21927;SDS011;11128;51.096;17.190;2022-07-06T04:54:25;13.35;;;5.88;;
21927;SDS011;11128;51.096;17.190;2022-07-06T04:59:27;11.30;;;5.57;;
21927;SDS011;11128;51.096;17.190;2022-07-06T05:04:29;15.88;;;7.68;;
21927;SDS011;11128;51.096;17.190;2022-07-06T05:09:30;23.92;;;16.88;;
21927;SDS011;11128;51.096;17.190;2022-07-06T05:14:32;27.33;;;20.58;;
21927;SDS011;11128;51.096;17.190;2022-07-06T05:19:33;20.77;;;15.00;;
21927;SDS011;11128;51.096;17.190;2022-07-06T05:24:35;24.80;;;18.60;;
21927;SDS011;11128;51.096;17.190;2022-07-06T05:29:37;21.88;;;16.20;;
21927;SDS011;11128;51.096;17.190;2022-07-06T05:34:39;23.70;;;17.52;;
21927;SDS011;11128;51.096;17.190;2022-07-06T05:39:40;22.10;;;15.93;;
21927;SDS011;11128;51.096;17.190;2022-07-06T05:44:44;17.70;;;13.07;;
21927;SDS011;11128;51.096;17.190;2022-07-06T05:49:46;14.60;;;9.38;;
21927;SDS011;11128;51.096;17.190;2022-07-06T05:55:06;11.93;;;7.63;;
21927;SDS011;11128;51.096;17.190;2022-07-06T06:00:08;8.38;;;6.88;;
21927;SDS011;11128;51.096;17.190;2022-07-06T06:05:10;7.22;;;6.30;;
21927;SDS011;11128;51.096;17.190;2022-07-06T06:10:12;10.43;;;7.15;;
21927;SDS011;11128;51.096;17.190;2022-07-06T06:15:16;9.75;;;6.43;;
21927;SDS011;11128;51.096;17.190;2022-07-06T06:20:19;9.10;;;5.97;;
21927;SDS011;11128;51.096;17.190;2022-07-06T06:25:34;9.20;;;5.95;;
21927;SDS011;11128;51.096;17.190;2022-07-06T06:30:37;10.43;;;6.68;;
21927;SDS011;11128;51.096;17.190;2022-07-06T06:35:47;7.78;;;5.82;;
21927;SDS011;11128;51.096;17.190;2022-07-06T06:45:53;9.88;;;6.60;;
21927;SDS011;11128;51.096;17.190;2022-07-06T06:50:55;17.52;;;12.88;;
21927;SDS011;11128;51.096;17.190;2022-07-06T06:55:57;15.55;;;11.80;;
21927;SDS011;11128;51.096;17.190;2022-07-06T07:00:58;13.18;;;8.88;;
21927;SDS011;11128;51.096;17.190;2022-07-06T07:06:00;9.43;;;7.20;;
21927;SDS011;11128;51.096;17.190;2022-07-06T07:11:02;7.97;;;5.50;;
21927;SDS011;11128;51.096;17.190;2022-07-06T07:16:03;6.15;;;4.93;;
21927;SDS011;11128;51.096;17.190;2022-07-06T07:21:05;6.53;;;5.30;;
21927;SDS011;11128;51.096;17.190;2022-07-06T07:26:07;7.18;;;5.43;;
21927;SDS011;11128;51.096;17.190;2022-07-06T07:31:09;5.28;;;4.78;;
21927;SDS011;11128;51.096;17.190;2022-07-06T07:36:11;6.38;;;4.57;;
21927;SDS011;11128;51.096;17.190;2022-07-06T07:41:13;6.85;;;4.03;;
21927;SDS011;11128;51.096;17.190;2022-07-06T07:46:15;7.15;;;3.65;;
21927;SDS011;11128;51.096;17.190;2022-07-06T07:51:16;3.30;;;3.00;;
21927;SDS011;11128;51.096;17.190;2022-07-06T07:56:19;2.92;;;2.65;;
21927;SDS011;11128;51.096;17.190;2022-07-06T08:01:21;3.70;;;2.63;;
21927;SDS011;11128;51.096;17.190;2022-07-06T08:06:23;2.67;;;2.47;;
21927;SDS011;11128;51.096;17.190;2022-07-06T08:11:25;4.03;;;2.83;;
21927;SDS011;11128;51.096;17.190;2022-07-06T08:16:27;3.75;;;2.80;;
21927;SDS011;11128;51.096;17.190;2022-07-06T08:21:29;5.47;;;2.70;;
21927;SDS011;11128;51.096;17.190;2022-07-06T08:26:30;5.75;;;2.97;;
21927;SDS011;11128;51.096;17.190;2022-07-06T08:31:31;3.40;;;2.67;;
21927;SDS011;11128;51.096;17.190;2022-07-06T08:36:36;2.95;;;2.28;;
21927;SDS011;11128;51.096;17.190;2022-07-06T08:41:38;3.75;;;2.30;;
21927;SDS011;11128;51.096;17.190;2022-07-06T08:46:42;5.72;;;2.58;;
21927;SDS011;11128;51.096;17.190;2022-07-06T08:51:45;2.80;;;1.67;;
21927;SDS011;11128;51.096;17.190;2022-07-06T08:56:48;3.58;;;3.00;;
21927;SDS011;11128;51.096;17.190;2022-07-06T09:01:50;3.15;;;2.00;;
21927;SDS011;11128;51.096;17.190;2022-07-06T09:06:51;3.38;;;2.13;;
21927;SDS011;11128;51.096;17.190;2022-07-06T09:11:56;2.25;;;1.80;;
21927;SDS011;11128;51.096;17.190;2022-07-06T09:17:02;4.22;;;2.10;;
21927;SDS011;11128;51.096;17.190;2022-07-06T09:22:05;3.67;;;2.30;;
21927;SDS011;11128;51.096;17.190;2022-07-06T09:27:14;4.10;;;2.10;;
21927;SDS011;11128;51.096;17.190;2022-07-06T09:32:19;3.20;;;2.00;;
21927;SDS011;11128;51.096;17.190;2022-07-06T09:37:23;5.93;;;2.05;;
21927;SDS011;11128;51.096;17.190;2022-07-06T09:42:26;2.35;;;2.10;;
21927;SDS011;11128;51.096;17.190;2022-07-06T09:47:29;2.28;;;1.88;;
21927;SDS011;11128;51.096;17.190;2022-07-06T09:52:36;3.05;;;2.22;;
21927;SDS011;11128;51.096;17.190;2022-07-06T09:57:38;4.70;;;2.45;;
21927;SDS011;11128;51.096;17.190;2022-07-06T10:02:39;3.75;;;2.00;;
21927;SDS011;11128;51.096;17.190;2022-07-06T10:07:47;3.95;;;2.60;;
21927;SDS011;11128;51.096;17.190;2022-07-06T10:12:50;5.15;;;2.53;;
21927;SDS011;11128;51.096;17.190;2022-07-06T10:17:55;3.13;;;2.05;;
21927;SDS011;11128;51.096;17.190;2022-07-06T10:22:58;4.50;;;1.75;;
21927;SDS011;11128;51.096;17.190;2022-07-06T10:28:01;5.50;;;1.80;;
21927;SDS011;11128;51.096;17.190;2022-07-06T10:33:03;3.45;;;1.90;;
21927;SDS011;11128;51.096;17.190;2022-07-06T10:38:05;3.85;;;1.20;;
21927;SDS011;11128;51.096;17.190;2022-07-06T10:43:09;2.53;;;1.50;;
21927;SDS011;11128;51.096;17.190;2022-07-06T10:53:35;6.28;;;1.23;;
21927;SDS011;11128;51.096;17.190;2022-07-06T11:03:42;2.55;;;1.23;;
21927;SDS011;11128;51.096;17.190;2022-07-06T11:08:45;3.58;;;0.90;;
21927;SDS011;11128;51.096;17.190;2022-07-06T11:19:01;1.90;;;1.40;;
21927;SDS011;11128;51.096;17.190;2022-07-06T11:24:12;3.85;;;1.58;;
21927;SDS011;11128;51.096;17.190;2022-07-06T11:29:16;2.35;;;1.52;;
21927;SDS011;11128;51.096;17.190;2022-07-06T11:34:25;3.20;;;1.85;;
21927;SDS011;11128;51.096;17.190;2022-07-06T11:39:30;2.10;;;1.67;;
21927;SDS011;11128;51.096;17.190;2022-07-06T11:44:33;6.78;;;1.92;;
21927;SDS011;11128;51.096;17.190;2022-07-06T11:49:35;3.90;;;1.73;;
21927;SDS011;11128;51.096;17.190;2022-07-06T11:54:39;6.05;;;1.80;;
21927;SDS011;11128;51.096;17.190;2022-07-06T11:59:42;4.07;;;1.38;;
21927;SDS011;11128;51.096;17.190;2022-07-06T12:04:47;1.67;;;1.30;;
21927;SDS011;11128;51.096;17.190;2022-07-06T12:09:50;1.58;;;1.00;;
21927;SDS011;11128;51.096;17.190;2022-07-06T12:14:52;2.80;;;1.10;;
21927;SDS011;11128;51.096;17.190;2022-07-06T12:19:54;1.05;;;0.93;;
21927;SDS011;11128;51.096;17.190;2022-07-06T12:24:56;0.95;;;0.80;;
21927;SDS011;11128;51.096;17.190;2022-07-06T12:30:07;4.07;;;1.25;;
21927;SDS011;11128;51.096;17.190;2022-07-06T12:35:10;1.45;;;1.00;;
21927;SDS011;11128;51.096;17.190;2022-07-06T12:40:13;1.98;;;0.80;;
21927;SDS011;11128;51.096;17.190;2022-07-06T12:45:15;2.13;;;0.70;;
21927;SDS011;11128;51.096;17.190;2022-07-06T12:50:18;4.55;;;0.88;;
21927;SDS011;11128;51.096;17.190;2022-07-06T12:55:24;2.60;;;0.88;;
21927;SDS011;11128;51.096;17.190;2022-07-06T13:00:28;4.30;;;0.63;;
21927;SDS011;11128;51.096;17.190;2022-07-06T13:05:49;2.80;;;0.90;;
21927;SDS011;11128;51.096;17.190;2022-07-06T13:10:52;3.60;;;1.60;;
21927;SDS011;11128;51.096;17.190;2022-07-06T13:15:54;3.65;;;1.77;;
21927;SDS011;11128;51.096;17.190;2022-07-06T13:20:58;4.78;;;1.80;;
21927;SDS011;11128;51.096;17.190;2022-07-06T13:25:59;9.88;;;1.73;;
21927;SDS011;11128;51.096;17.190;2022-07-06T13:31:04;6.10;;;1.40;;
21927;SDS011;11128;51.096;17.190;2022-07-06T13:36:06;2.20;;;1.38;;
21927;SDS011;11128;51.096;17.190;2022-07-06T13:41:08;4.20;;;1.45;;
21927;SDS011;11128;51.096;17.190;2022-07-06T13:46:10;2.53;;;1.60;;
21927;SDS011;11128;51.096;17.190;2022-07-06T13:51:12;2.00;;;1.05;;
21927;SDS011;11128;51.096;17.190;2022-07-06T13:56:14;5.70;;;1.77;;
21927;SDS011;11128;51.096;17.190;2022-07-06T14:01:16;2.22;;;1.50;;
21927;SDS011;11128;51.096;17.190;2022-07-06T14:06:19;9.57;;;1.88;;
21927;SDS011;11128;51.096;17.190;2022-07-06T14:11:22;5.40;;;1.65;;
21927;SDS011;11128;51.096;17.190;2022-07-06T14:16:23;1.42;;;1.33;;
21927;SDS011;11128;51.096;17.190;2022-07-06T14:21:25;2.08;;;1.38;;
21927;SDS011;11128;51.096;17.190;2022-07-06T14:26:28;4.03;;;1.63;;
21927;SDS011;11128;51.096;17.190;2022-07-06T14:31:29;4.03;;;1.73;;
21927;SDS011;11128;51.096;17.190;2022-07-06T14:36:32;3.58;;;0.70;;
21927;SDS011;11128;51.096;17.190;2022-07-06T14:41:34;1.00;;;0.70;;
21927;SDS011;11128;51.096;17.190;2022-07-06T14:46:37;3.35;;;1.30;;
21927;SDS011;11128;51.096;17.190;2022-07-06T14:51:38;1.30;;;1.10;;
21927;SDS011;11128;51.096;17.190;2022-07-06T14:56:40;2.22;;;1.10;;
21927;SDS011;11128;51.096;17.190;2022-07-06T15:01:42;4.68;;;0.90;;
21927;SDS011;11128;51.096;17.190;2022-07-06T15:06:44;2.17;;;1.10;;
21927;SDS011;11128;51.096;17.190;2022-07-06T15:11:46;4.50;;;1.00;;
21927;SDS011;11128;51.096;17.190;2022-07-06T15:16:49;2.75;;;1.13;;
21927;SDS011;11128;51.096;17.190;2022-07-06T15:21:53;1.92;;;1.00;;
21927;SDS011;11128;51.096;17.190;2022-07-06T15:26:55;4.07;;;1.25;;
21927;SDS011;11128;51.096;17.190;2022-07-06T15:31:56;4.45;;;1.60;;
21927;SDS011;11128;51.096;17.190;2022-07-06T15:36:58;2.90;;;1.38;;
21927;SDS011;11128;51.096;17.190;2022-07-06T15:42:00;3.40;;;1.20;;
21927;SDS011;11128;51.096;17.190;2022-07-06T15:47:03;2.10;;;0.90;;
21927;SDS011;11128;51.096;17.190;2022-07-06T15:52:07;2.35;;;0.80;;
21927;SDS011;11128;51.096;17.190;2022-07-06T15:57:08;2.40;;;1.08;;
21927;SDS011;11128;51.096;17.190;2022-07-06T16:02:10;2.45;;;1.13;;
21927;SDS011;11128;51.096;17.190;2022-07-06T16:07:11;2.40;;;0.70;;
21927;SDS011;11128;51.096;17.190;2022-07-06T16:12:14;1.10;;;0.80;;
21927;SDS011;11128;51.096;17.190;2022-07-06T16:17:15;1.83;;;0.80;;
21927;SDS011;11128;51.096;17.190;2022-07-06T16:22:17;1.20;;;0.80;;
21927;SDS011;11128;51.096;17.190;2022-07-06T16:27:19;0.85;;;0.55;;
21927;SDS011;11128;51.096;17.190;2022-07-06T16:32:21;1.05;;;0.85;;
21927;SDS011;11128;51.096;17.190;2022-07-06T16:37:22;0.70;;;0.60;;
21927;SDS011;11128;51.096;17.190;2022-07-06T16:42:24;1.15;;;0.80;;
21927;SDS011;11128;51.096;17.190;2022-07-06T16:47:26;1.77;;;0.85;;
21927;SDS011;11128;51.096;17.190;2022-07-06T16:52:28;2.63;;;0.70;;
21927;SDS011;11128;51.096;17.190;2022-07-06T16:57:29;1.48;;;0.80;;
21927;SDS011;11128;51.096;17.190;2022-07-06T17:02:31;3.85;;;1.15;;
21927;SDS011;11128;51.096;17.190;2022-07-06T17:07:33;1.10;;;0.70;;
21927;SDS011;11128;51.096;17.190;2022-07-06T17:12:35;2.15;;;0.73;;
21927;SDS011;11128;51.096;17.190;2022-07-06T17:17:37;2.90;;;0.90;;
21927;SDS011;11128;51.096;17.190;2022-07-06T17:22:38;2.17;;;0.82;;
21927;SDS011;11128;51.096;17.190;2022-07-06T17:27:40;2.60;;;0.82;;
21927;SDS011;11128;51.096;17.190;2022-07-06T17:32:42;2.35;;;0.80;;
21927;SDS011;11128;51.096;17.190;2022-07-06T17:37:44;1.75;;;0.95;;
21927;SDS011;11128;51.096;17.190;2022-07-06T17:42:47;1.92;;;0.98;;
21927;SDS011;11128;51.096;17.190;2022-07-06T17:47:48;2.70;;;0.80;;
21927;SDS011;11128;51.096;17.190;2022-07-06T17:53:09;4.82;;;1.00;;
21927;SDS011;11128;51.096;17.190;2022-07-06T17:58:11;4.78;;;1.00;;
21927;SDS011;11128;51.096;17.190;2022-07-06T18:03:15;6.28;;;1.00;;
21927;SDS011;11128;51.096;17.190;2022-07-06T18:08:17;2.15;;;0.70;;
21927;SDS011;11128;51.096;17.190;2022-07-06T18:13:19;8.98;;;1.17;;
21927;SDS011;11128;51.096;17.190;2022-07-06T18:18:21;1.83;;;0.90;;
21927;SDS011;11128;51.096;17.190;2022-07-06T18:23:25;1.85;;;0.80;;
21927;SDS011;11128;51.096;17.190;2022-07-06T18:28:28;4.55;;;1.05;;
21927;SDS011;11128;51.096;17.190;2022-07-06T18:33:31;1.42;;;0.88;;
21927;SDS011;11128;51.096;17.190;2022-07-06T18:38:34;2.67;;;1.00;;
21927;SDS011;11128;51.096;17.190;2022-07-06T18:43:36;2.60;;;0.85;;
21927;SDS011;11128;51.096;17.190;2022-07-06T18:48:37;3.65;;;1.00;;
21927;SDS011;11128;51.096;17.190;2022-07-06T18:53:39;6.35;;;1.00;;
21927;SDS011;11128;51.096;17.190;2022-07-06T18:58:42;2.92;;;0.85;;
21927;SDS011;11128;51.096;17.190;2022-07-06T19:03:45;2.42;;;0.73;;
21927;SDS011;11128;51.096;17.190;2022-07-06T19:08:49;2.67;;;0.98;;
21927;SDS011;11128;51.096;17.190;2022-07-06T19:13:51;1.75;;;0.82;;
21927;SDS011;11128;51.096;17.190;2022-07-06T19:18:52;2.85;;;1.23;;
21927;SDS011;11128;51.096;17.190;2022-07-06T19:23:55;1.88;;;0.80;;
21927;SDS011;11128;51.096;17.190;2022-07-06T19:28:56;4.75;;;0.85;;
21927;SDS011;11128;51.096;17.190;2022-07-06T19:33:58;2.75;;;0.82;;
21927;SDS011;11128;51.096;17.190;2022-07-06T19:39:00;4.72;;;1.33;;
21927;SDS011;11128;51.096;17.190;2022-07-06T19:44:02;6.68;;;0.90;;
21927;SDS011;11128;51.096;17.190;2022-07-06T19:49:04;2.03;;;1.00;;
21927;SDS011;11128;51.096;17.190;2022-07-06T19:54:06;2.15;;;0.98;;
21927;SDS011;11128;51.096;17.190;2022-07-06T19:59:07;2.45;;;1.20;;
21927;SDS011;11128;51.096;17.190;2022-07-06T20:04:09;6.28;;;1.35;;
21927;SDS011;11128;51.096;17.190;2022-07-06T20:09:12;1.60;;;1.00;;
21927;SDS011;11128;51.096;17.190;2022-07-06T20:14:15;2.35;;;1.20;;
21927;SDS011;11128;51.096;17.190;2022-07-06T20:19:18;5.82;;;1.98;;
21927;SDS011;11128;51.096;17.190;2022-07-06T20:24:21;3.80;;;1.83;;
21927;SDS011;11128;51.096;17.190;2022-07-06T20:29:23;3.85;;;1.70;;
21927;SDS011;11128;51.096;17.190;2022-07-06T20:34:25;4.50;;;1.65;;
21927;SDS011;11128;51.096;17.190;2022-07-06T20:39:28;5.03;;;1.77;;
21927;SDS011;11128;51.096;17.190;2022-07-06T20:44:30;5.70;;;1.90;;
21927;SDS011;11128;51.096;17.190;2022-07-06T20:49:31;3.85;;;1.58;;
21927;SDS011;11128;51.096;17.190;2022-07-06T20:54:34;2.90;;;1.60;;
21927;SDS011;11128;51.096;17.190;2022-07-06T20:59:38;2.83;;;1.60;;
21927;SDS011;11128;51.096;17.190;2022-07-06T21:04:40;3.13;;;1.70;;
21927;SDS011;11128;51.096;17.190;2022-07-06T21:09:42;3.13;;;1.85;;
21927;SDS011;11128;51.096;17.190;2022-07-06T21:14:44;4.28;;;2.13;;
21927;SDS011;11128;51.096;17.190;2022-07-06T21:19:45;4.55;;;1.90;;
21927;SDS011;11128;51.096;17.190;2022-07-06T21:24:47;4.13;;;1.80;;
21927;SDS011;11128;51.096;17.190;2022-07-06T21:29:48;4.70;;;1.70;;
21927;SDS011;11128;51.096;17.190;2022-07-06T21:34:50;2.60;;;1.60;;
21927;SDS011;11128;51.096;17.190;2022-07-06T21:39:53;4.10;;;1.52;;
21927;SDS011;11128;51.096;17.190;2022-07-06T21:44:56;4.43;;;1.92;;
21927;SDS011;11128;51.096;17.190;2022-07-06T21:49:59;2.63;;;1.40;;
21927;SDS011;11128;51.096;17.190;2022-07-06T21:55:00;4.20;;;1.60;;
21927;SDS011;11128;51.096;17.190;2022-07-06T22:00:03;1.90;;;1.65;;
21927;SDS011;11128;51.096;17.190;2022-07-06T22:05:06;3.97;;;1.90;;
21927;SDS011;11128;51.096;17.190;2022-07-06T22:10:08;5.05;;;2.08;;
21927;SDS011;11128;51.096;17.190;2022-07-06T22:15:10;7.28;;;1.98;;
21927;SDS011;11128;51.096;17.190;2022-07-06T22:20:12;4.47;;;1.95;;
21927;SDS011;11128;51.096;17.190;2022-07-06T22:25:16;4.78;;;2.13;;
21927;SDS011;11128;51.096;17.190;2022-07-06T22:30:17;5.93;;;1.92;;
21927;SDS011;11128;51.096;17.190;2022-07-06T22:35:19;5.15;;;2.33;;
21927;SDS011;11128;51.096;17.190;2022-07-06T22:40:22;5.85;;;2.78;;
21927;SDS011;11128;51.096;17.190;2022-07-06T22:45:42;6.70;;;2.83;;
21927;SDS011;11128;51.096;17.190;2022-07-06T22:50:44;6.00;;;2.55;;
21927;SDS011;11128;51.096;17.190;2022-07-06T22:55:47;2.42;;;2.00;;
21927;SDS011;11128;51.096;17.190;2022-07-06T23:00:48;5.57;;;1.90;;
21927;SDS011;11128;51.096;17.190;2022-07-06T23:05:49;7.80;;;2.65;;
21927;SDS011;11128;51.096;17.190;2022-07-06T23:10:51;4.70;;;2.35;;
21927;SDS011;11128;51.096;17.190;2022-07-06T23:15:54;2.88;;;1.98;;
21927;SDS011;11128;51.096;17.190;2022-07-06T23:20:55;3.78;;;2.15;;
21927;SDS011;11128;51.096;17.190;2022-07-06T23:25:57;5.30;;;2.50;;
21927;SDS011;11128;51.096;17.190;2022-07-06T23:30:59;3.58;;;2.20;;
21927;SDS011;11128;51.096;17.190;2022-07-06T23:36:01;5.30;;;2.88;;
21927;SDS011;11128;51.096;17.190;2022-07-06T23:41:06;7.05;;;2.20;;
21927;SDS011;11128;51.096;17.190;2022-07-06T23:46:08;7.38;;;2.53;;
21927;SDS011;11128;51.096;17.190;2022-07-06T23:51:09;5.57;;;2.35;;
21927;SDS011;11128;51.096;17.190;2022-07-06T23:56:11;9.15;;;3.20;;
